Time;durP1;ratioP1;P1;durP2;ratioP2;P2;SDS_P1;SDS_P2;PMS_P1;PMS_P2;Temp;Humidity;BMP_temperature;BMP_pressure;BME280_temperature;BME280_humidity;BME280_pressure;Samples;Min_cycle;Max_cycle;Signal;HPM_P1;HPM_P2
2022/05/21 00:00:25;;;;;;;4.85;2.42;;;11.50;99.90;;;;;;5050424;28;20025;-45
2022/05/21 00:02:51;;;;;;;5.22;2.00;;;11.50;99.90;;;;;;5049981;28;20061;-44
2022/05/21 00:05:19;;;;;;;5.78;2.65;;;11.40;99.90;;;;;;5050356;28;20067;-45
2022/05/21 00:07:45;;;;;;;5.63;2.33;;;11.30;99.90;;;;;;5049817;28;20116;-44
2022/05/21 00:10:13;;;;;;;4.43;2.40;;;11.30;99.90;;;;;;5050456;28;20432;-46
2022/05/21 00:12:39;;;;;;;5.40;2.28;;;11.30;99.90;;;;;;5048888;28;20037;-46
2022/05/21 00:15:06;;;;;;;6.68;2.70;;;11.20;99.90;;;;;;5050149;28;20021;-44
2022/05/21 00:17:31;;;;;;;4.95;2.72;;;11.10;99.90;;;;;;5050223;28;20025;-44
2022/05/21 00:19:57;;;;;;;6.13;2.60;;;11.10;99.90;;;;;;5049864;28;20040;-45
2022/05/21 00:22:22;;;;;;;6.85;2.42;;;11.10;99.90;;;;;;5049890;28;20023;-46
2022/05/21 00:24:48;;;;;;;6.97;2.55;;;11.10;99.90;;;;;;5050218;28;20617;-44
2022/05/21 00:27:14;;;;;;;6.85;3.03;;;11.10;99.90;;;;;;5049827;28;20487;-45
2022/05/21 00:29:39;;;;;;;3.78;2.40;;;11.10;99.90;;;;;;5049420;28;20021;-43
2022/05/21 00:32:05;;;;;;;8.27;3.20;;;11.00;99.90;;;;;;5049237;28;20035;-45
2022/05/21 00:34:31;;;;;;;4.15;2.88;;;11.00;99.90;;;;;;5049802;28;20041;-46
2022/05/21 00:36:57;;;;;;;5.68;2.92;;;11.00;99.90;;;;;;5049610;28;20037;-47
2022/05/21 00:39:23;;;;;;;3.80;2.85;;;10.90;99.90;;;;;;5050097;28;20021;-50
2022/05/21 00:41:50;;;;;;;5.10;2.72;;;10.90;99.90;;;;;;5069323;28;20035;-47
2022/05/21 00:44:15;;;;;;;4.78;3.03;;;10.90;99.90;;;;;;5069094;28;20017;-45
2022/05/21 00:46:43;;;;;;;3.40;3.08;;;10.90;99.90;;;;;;5069045;28;20028;-45
2022/05/21 00:49:09;;;;;;;3.63;2.72;;;10.90;99.90;;;;;;5069885;28;20185;-45
2022/05/21 00:51:47;;;;;;;3.65;2.67;;;10.80;99.90;;;;;;5069343;28;20025;-45
2022/05/21 00:54:15;;;;;;;4.95;3.17;;;10.80;99.90;;;;;;5070014;28;20013;-44
2022/05/21 00:56:50;;;;;;;4.85;2.92;;;10.80;99.90;;;;;;5069731;28;20055;-48
2022/05/21 01:02:05;;;;;;;10.38;4.72;;;10.70;99.90;;;;;;5067061;28;20635;-47
2022/05/21 01:04:33;;;;;;;5.85;4.28;;;10.70;99.90;;;;;;5068166;28;20027;-46
2022/05/21 01:07:00;;;;;;;7.05;4.97;;;10.70;99.90;;;;;;5069349;28;20040;-48
2022/05/21 01:09:26;;;;;;;8.15;4.35;;;10.70;99.90;;;;;;5069046;28;20033;-46
2022/05/21 01:11:51;;;;;;;4.72;3.97;;;10.70;99.90;;;;;;5069127;28;20093;-44
2022/05/21 01:14:20;;;;;;;6.45;4.32;;;10.70;99.90;;;;;;5069028;28;20067;-46
2022/05/21 01:16:47;;;;;;;7.97;4.78;;;10.70;99.90;;;;;;5068244;28;20028;-46
2022/05/21 01:19:12;;;;;;;7.05;3.95;;;10.70;99.90;;;;;;5068707;28;20604;-45
2022/05/21 01:21:39;;;;;;;5.35;4.40;;;10.70;99.90;;;;;;5069335;28;20024;-48
2022/05/21 01:24:05;;;;;;;8.30;4.65;;;10.70;99.90;;;;;;5068271;28;20013;-44
2022/05/21 01:26:34;;;;;;;11.07;4.65;;;10.70;99.90;;;;;;5068255;28;20031;-44
2022/05/21 01:29:03;;;;;;;13.98;4.57;;;10.70;99.90;;;;;;5069456;28;20040;-46
2022/05/21 01:31:32;;;;;;;5.93;4.10;;;10.60;99.90;;;;;;5051299;28;20047;-46
2022/05/21 01:33:58;;;;;;;6.35;4.15;;;10.60;99.90;;;;;;5069354;28;20035;-44
2022/05/21 01:36:24;;;;;;;6.60;4.78;;;10.60;99.90;;;;;;5067734;28;20028;-46
2022/05/21 01:38:50;;;;;;;6.95;4.35;;;10.60;99.90;;;;;;5069150;28;20038;-46
2022/05/21 01:41:16;;;;;;;6.43;4.10;;;10.50;99.90;;;;;;5068142;28;20029;-45
2022/05/21 01:46:26;;;;;;;4.70;4.22;;;10.50;99.90;;;;;;5068798;28;20112;-46
2022/05/21 01:48:52;;;;;;;5.63;4.15;;;10.50;99.90;;;;;;5068935;28;20749;-44
2022/05/21 01:51:18;;;;;;;5.65;4.03;;;10.40;99.90;;;;;;5070288;28;20106;-44
2022/05/21 01:53:44;;;;;;;5.78;4.43;;;10.40;99.90;;;;;;5071278;28;20111;-44
2022/05/21 01:56:11;;;;;;;8.50;4.75;;;10.40;99.90;;;;;;5072815;28;20052;-44
2022/05/21 01:58:37;;;;;;;7.65;4.60;;;10.30;99.90;;;;;;5072747;28;20030;-44
2022/05/21 02:01:04;;;;;;;4.93;4.18;;;10.30;99.90;;;;;;5072947;28;20024;-44
2022/05/21 02:03:29;;;;;;;5.00;3.92;;;10.30;99.90;;;;;;5072632;28;20056;-44
2022/05/21 02:05:55;;;;;;;5.00;3.55;;;10.30;99.90;;;;;;5070138;28;20483;-46
2022/05/21 02:08:21;;;;;;;5.65;4.05;;;10.30;99.90;;;;;;5072456;28;20045;-43
2022/05/21 02:10:47;;;;;;;3.53;3.22;;;10.30;99.90;;;;;;5072700;28;20082;-45
2022/05/21 02:13:22;;;;;;;6.40;4.25;;;10.30;99.90;;;;;;5071008;28;20187;-47
2022/05/21 02:15:48;;;;;;;4.22;3.58;;;10.30;99.90;;;;;;5072496;28;20411;-44
2022/05/21 02:18:14;;;;;;;8.82;4.10;;;10.30;99.90;;;;;;5071093;28;20067;-44
2022/05/21 02:20:40;;;;;;;5.28;3.70;;;10.40;99.90;;;;;;5071920;28;20052;-44
2022/05/21 02:23:06;;;;;;;4.82;3.20;;;10.30;99.90;;;;;;5072364;28;20031;-45
2022/05/21 02:25:32;;;;;;;4.35;2.92;;;10.40;99.90;;;;;;5071645;28;20032;-43
2022/05/21 02:27:57;;;;;;;2.70;2.47;;;10.40;99.90;;;;;;5071684;28;20021;-45
2022/05/21 02:30:23;;;;;;;5.80;2.58;;;10.40;99.90;;;;;;5072406;28;20495;-44
2022/05/21 02:32:49;;;;;;;5.57;2.55;;;10.40;99.90;;;;;;5071898;28;20476;-44
2022/05/21 02:35:15;;;;;;;8.57;3.03;;;10.40;99.90;;;;;;5072223;28;20090;-45
2022/05/21 02:40:25;;;;;;;5.38;2.92;;;10.40;99.90;;;;;;5072250;28;20078;-44
2022/05/21 02:42:50;;;;;;;4.82;2.55;;;10.40;99.90;;;;;;5071507;28;20020;-45
2022/05/21 02:45:25;;;;;;;5.55;3.60;;;10.40;99.90;;;;;;5071980;28;20016;-43
2022/05/21 02:47:51;;;;;;;6.47;3.40;;;10.40;99.90;;;;;;5069507;28;20517;-45
2022/05/21 02:50:21;;;;;;;4.32;2.80;;;10.40;99.90;;;;;;5070631;28;20040;-44
2022/05/21 02:52:47;;;;;;;4.30;3.03;;;10.50;99.90;;;;;;5071577;28;20025;-44
2022/05/21 02:55:14;;;;;;;5.70;3.22;;;10.50;99.90;;;;;;5072034;28;20101;-44
2022/05/21 02:57:41;;;;;;;4.53;3.65;;;10.50;99.90;;;;;;5071652;28;20103;-46
2022/05/21 03:00:14;;;;;;;10.50;4.00;;;10.60;99.90;;;;;;5071824;28;20403;-45
2022/05/21 03:02:39;;;;;;;6.47;4.07;;;10.60;99.90;;;;;;5070885;28;20027;-48
2022/05/21 03:05:06;;;;;;;5.57;4.38;;;10.60;99.90;;;;;;5071866;28;20383;-50
2022/05/21 03:07:40;;;;;;;8.27;5.13;;;10.60;99.90;;;;;;5071474;28;20119;-44
2022/05/21 03:10:22;;;;;;;8.25;4.18;;;10.60;99.90;;;;;;5071994;28;20032;-49
2022/05/21 03:13:07;;;;;;;4.38;3.60;;;10.60;99.90;;;;;;5071154;28;20390;-45
2022/05/21 03:15:36;;;;;;;7.28;4.15;;;10.60;99.90;;;;;;5069839;28;20037;-51
2022/05/21 03:18:05;;;;;;;7.40;3.80;;;10.60;99.90;;;;;;5071180;28;20068;-48
2022/05/21 03:20:31;;;;;;;5.28;3.85;;;10.70;99.90;;;;;;5070769;28;20036;-44
2022/05/21 03:22:57;;;;;;;6.47;3.70;;;10.70;99.90;;;;;;5071248;28;20032;-44
2022/05/21 03:25:23;;;;;;;8.25;4.43;;;10.70;99.90;;;;;;5071195;28;20017;-49
2022/05/21 03:27:50;;;;;;;6.78;4.50;;;10.70;99.90;;;;;;5070907;28;20028;-45
2022/05/21 03:30:17;;;;;;;6.43;4.22;;;10.70;99.90;;;;;;5071129;28;20104;-47
2022/05/21 03:32:44;;;;;;;7.43;4.43;;;10.70;99.90;;;;;;5070860;28;20140;-45
2022/05/21 03:35:11;;;;;;;5.88;4.15;;;10.70;99.90;;;;;;5070882;28;20047;-45
2022/05/21 03:37:37;;;;;;;7.25;4.95;;;10.60;99.90;;;;;;5070771;28;20025;-44
2022/05/21 03:40:04;;;;;;;7.38;5.18;;;10.70;99.90;;;;;;5070849;28;20023;-47
2022/05/21 03:42:30;;;;;;;6.50;5.28;;;10.70;99.90;;;;;;5070292;28;20120;-46
2022/05/21 03:44:55;;;;;;;9.75;5.82;;;10.70;99.90;;;;;;5070358;28;20103;-46
2022/05/21 03:47:21;;;;;;;8.50;4.82;;;10.70;99.90;;;;;;5070725;28;20039;-48
2022/05/21 03:49:46;;;;;;;6.15;4.85;;;10.70;99.90;;;;;;5070670;28;20025;-45
2022/05/21 03:52:12;;;;;;;6.65;5.20;;;10.70;99.90;;;;;;5070472;28;20020;-46
2022/05/21 03:54:37;;;;;;;7.57;5.10;;;10.70;99.90;;;;;;5070828;28;20429;-45
2022/05/21 03:57:04;;;;;;;6.30;5.10;;;10.70;99.90;;;;;;5070683;28;20027;-48
2022/05/21 03:59:30;;;;;;;7.78;4.78;;;10.70;99.90;;;;;;5070430;28;20028;-45
2022/05/21 04:01:55;;;;;;;6.85;4.72;;;10.80;99.90;;;;;;5070255;28;20082;-46
2022/05/21 04:04:21;;;;;;;6.72;5.30;;;10.80;99.90;;;;;;5070704;28;20471;-45
2022/05/21 04:06:47;;;;;;;4.88;4.13;;;10.80;99.90;;;;;;5069116;28;20075;-45
2022/05/21 04:09:14;;;;;;;6.70;4.65;;;10.80;99.90;;;;;;5070204;28;20166;-47
2022/05/21 04:11:40;;;;;;;4.85;4.40;;;10.80;99.90;;;;;;5069995;28;20077;-46
2022/05/21 04:14:07;;;;;;;4.70;4.25;;;10.80;99.90;;;;;;5069793;28;20489;-45
2022/05/21 04:16:33;;;;;;;9.68;4.15;;;10.80;99.90;;;;;;5069990;28;20035;-48
2022/05/21 04:18:59;;;;;;;5.78;3.35;;;10.80;99.90;;;;;;5070157;28;20081;-45
2022/05/21 04:21:26;;;;;;;6.80;3.95;;;10.80;99.90;;;;;;5069953;28;20035;-48
2022/05/21 04:23:52;;;;;;;6.10;4.03;;;10.90;99.90;;;;;;5070264;28;20023;-49
2022/05/21 04:26:18;;;;;;;6.20;5.00;;;10.80;99.90;;;;;;5068758;28;20020;-45
2022/05/21 04:28:43;;;;;;;9.27;4.28;;;10.80;99.90;;;;;;5069915;28;20028;-45
2022/05/21 04:31:09;;;;;;;5.53;3.88;;;10.80;99.90;;;;;;5069759;28;20589;-46
2022/05/21 04:33:34;;;;;;;5.95;4.13;;;10.90;99.90;;;;;;5069689;28;20097;-48
2022/05/21 04:36:18;;;;;;;7.10;4.38;;;10.90;99.90;;;;;;5069904;28;20039;-45
2022/05/21 04:38:49;;;;;;;5.95;4.32;;;10.90;99.90;;;;;;5068562;28;20028;-45
2022/05/21 04:41:15;;;;;;;5.45;4.88;;;10.90;99.90;;;;;;5070105;28;20027;-47
2022/05/21 04:43:41;;;;;;;7.18;5.38;;;10.90;99.90;;;;;;5069698;28;20028;-45
2022/05/21 04:46:08;;;;;;;8.73;6.00;;;10.90;99.90;;;;;;5069798;28;20036;-45
2022/05/21 04:48:34;;;;;;;9.93;6.10;;;10.90;99.90;;;;;;5069732;28;20032;-45
2022/05/21 04:51:02;;;;;;;7.43;6.22;;;10.90;99.90;;;;;;5069894;28;20445;-46
2022/05/21 04:53:28;;;;;;;11.70;7.78;;;11.00;99.90;;;;;;5069139;28;20028;-46
2022/05/21 04:55:53;;;;;;;13.10;7.85;;;11.00;99.90;;;;;;5069832;28;20021;-45
2022/05/21 04:58:19;;;;;;;9.45;7.43;;;11.00;99.90;;;;;;5069733;28;20032;-49
2022/05/21 05:00:45;;;;;;;11.98;8.10;;;11.00;99.90;;;;;;5070111;28;20055;-45
2022/05/21 05:03:11;;;;;;;9.07;7.93;;;11.00;99.90;;;;;;5069666;28;20039;-45
2022/05/21 05:05:39;;;;;;;9.60;8.02;;;11.10;99.90;;;;;;5070043;28;20029;-45
2022/05/21 05:08:05;;;;;;;8.73;7.60;;;11.10;99.90;;;;;;5069425;28;20047;-48
2022/05/21 05:10:31;;;;;;;12.55;8.02;;;11.10;99.90;;;;;;5069905;28;20017;-51
2022/05/21 05:12:57;;;;;;;15.27;9.70;;;11.10;99.90;;;;;;5069545;28;20032;-50
2022/05/21 05:15:22;;;;;;;14.40;10.25;;;11.20;99.90;;;;;;5069862;28;20029;-48
2022/05/21 05:17:48;;;;;;;19.45;10.25;;;11.20;99.90;;;;;;5069906;28;20052;-49
2022/05/21 05:20:14;;;;;;;18.85;11.50;;;11.20;99.90;;;;;;5070083;28;20437;-50
2022/05/21 05:22:39;;;;;;;18.48;11.43;;;11.20;99.90;;;;;;5069727;28;20391;-45
2022/05/21 05:25:06;;;;;;;14.18;11.68;;;11.20;99.90;;;;;;5069611;28;20013;-45
2022/05/21 05:27:31;;;;;;;14.57;11.82;;;11.30;99.90;;;;;;5073074;28;20557;-48
2022/05/21 05:29:58;;;;;;;16.98;11.82;;;11.30;99.90;;;;;;5072226;28;20136;-51
2022/05/21 05:32:24;;;;;;;12.75;10.93;;;11.30;99.90;;;;;;5073402;28;20028;-45
2022/05/21 05:34:49;;;;;;;15.82;11.55;;;11.30;99.90;;;;;;5073515;28;20397;-45
2022/05/21 05:37:15;;;;;;;18.33;12.30;;;11.30;99.90;;;;;;5073273;28;20027;-45
2022/05/21 05:39:40;;;;;;;18.25;13.45;;;11.40;99.90;;;;;;5073136;28;20063;-46
2022/05/21 05:42:06;;;;;;;16.80;14.02;;;11.40;99.90;;;;;;5072995;28;20052;-47
2022/05/21 05:44:32;;;;;;;18.92;15.30;;;11.40;99.90;;;;;;5072692;28;20029;-48
2022/05/21 05:46:58;;;;;;;20.85;15.80;;;11.50;99.90;;;;;;5073415;28;20040;-45
2022/05/21 05:49:23;;;;;;;20.83;15.40;;;11.50;99.90;;;;;;5073472;28;20029;-47
2022/05/21 05:51:49;;;;;;;19.00;15.30;;;11.50;99.90;;;;;;5073015;28;20078;-52
2022/05/21 05:54:14;;;;;;;24.17;15.77;;;11.60;99.90;;;;;;5073332;28;20023;-49
2022/05/21 05:56:44;;;;;;;21.02;16.73;;;11.60;99.90;;;;;;5073533;28;20112;-46
2022/05/21 06:02:58;;;;;;;19.80;17.73;;;11.70;99.90;;;;;;5073146;28;20100;-48
2022/05/21 06:04:40;;;;;;;19.63;16.08;;;11.70;99.90;;;;;;5071817;28;20186;-48
2022/05/21 06:07:06;;;;;;;17.88;15.30;;;11.70;99.90;;;;;;5073008;28;20039;-50
2022/05/21 06:09:32;;;;;;;18.38;15.20;;;11.80;99.90;;;;;;5072798;28;20501;-46
2022/05/21 06:11:58;;;;;;;19.35;15.65;;;11.70;99.90;;;;;;5072436;28;20581;-46
2022/05/21 06:14:25;;;;;;;18.23;15.48;;;11.80;99.90;;;;;;5072300;28;20031;-51
2022/05/21 06:16:51;;;;;;;18.52;15.75;;;11.80;99.90;;;;;;5072078;28;20027;-45
2022/05/21 06:19:17;;;;;;;19.63;16.27;;;11.80;99.90;;;;;;5072119;28;20028;-50
2022/05/21 06:21:42;;;;;;;19.60;15.77;;;11.80;99.90;;;;;;5071899;28;20025;-45
2022/05/21 06:24:08;;;;;;;20.58;17.42;;;11.80;99.90;;;;;;5071974;28;20048;-47
2022/05/21 06:26:34;;;;;;;18.92;16.15;;;11.90;99.90;;;;;;5072120;28;20029;-45
2022/05/21 06:28:59;;;;;;;23.52;17.33;;;11.80;99.90;;;;;;5071917;28;20025;-45
2022/05/21 06:31:25;;;;;;;18.58;16.60;;;11.90;99.90;;;;;;5071674;28;20027;-44
2022/05/21 06:33:50;;;;;;;21.00;18.85;;;11.90;99.90;;;;;;5072172;28;20558;-44
2022/05/21 06:36:16;;;;;;;20.42;17.75;;;11.90;99.90;;;;;;5072305;28;20498;-44
2022/05/21 06:38:44;;;;;;;23.90;19.80;;;12.00;99.90;;;;;;5070938;28;20475;-44
2022/05/21 06:41:10;;;;;;;23.88;19.05;;;12.00;99.90;;;;;;5071912;28;20025;-47
2022/05/21 06:43:35;;;;;;;21.38;18.00;;;12.10;99.90;;;;;;5071796;28;20029;-45
2022/05/21 06:46:01;;;;;;;26.30;19.45;;;12.10;99.90;;;;;;5070723;28;20032;-44
2022/05/21 06:48:27;;;;;;;22.48;18.40;;;12.10;99.90;;;;;;5071718;28;20021;-46
2022/05/21 06:50:53;;;;;;;23.10;18.17;;;12.20;99.90;;;;;;5071911;28;20036;-48
2022/05/21 06:53:19;;;;;;;20.88;17.92;;;12.20;99.90;;;;;;5071393;28;20048;-46
2022/05/21 06:55:44;;;;;;;22.67;18.52;;;12.30;99.90;;;;;;5071781;28;20490;-45
2022/05/21 06:58:11;;;;;;;23.80;19.08;;;12.30;99.90;;;;;;5071704;28;20028;-46
2022/05/21 07:00:36;;;;;;;23.45;17.75;;;12.30;99.90;;;;;;5070039;28;20025;-45
2022/05/21 07:03:02;;;;;;;21.20;17.85;;;12.30;99.90;;;;;;5071250;28;20479;-46
2022/05/21 07:08:23;;;;;;;20.52;15.63;;;12.40;99.90;;;;;;5071313;28;20039;-46
2022/05/21 07:10:48;;;;;;;18.38;15.93;;;12.40;99.90;;;;;;5071349;28;20024;-46
2022/05/21 07:13:16;;;;;;;22.27;15.45;;;12.50;99.90;;;;;;5071112;28;20028;-44
2022/05/21 07:15:42;;;;;;;19.45;15.63;;;12.60;99.90;;;;;;5071413;28;20033;-44
2022/05/21 07:18:07;;;;;;;22.70;16.25;;;12.80;99.90;;;;;;5071125;28;20024;-44
2022/05/21 07:20:33;;;;;;;19.02;14.70;;;12.90;99.90;;;;;;5070812;28;20071;-46
2022/05/21 07:23:00;;;;;;;21.20;15.95;;;12.90;99.90;;;;;;5070863;28;20016;-46
2022/05/21 07:25:28;;;;;;;22.73;15.32;;;13.00;99.90;;;;;;5070705;28;20031;-48
2022/05/21 07:27:54;;;;;;;20.10;16.20;;;13.30;99.90;;;;;;5070631;28;20081;-46
2022/05/21 07:30:19;;;;;;;17.80;14.43;;;13.80;99.90;;;;;;5070690;28;20479;-46
2022/05/21 07:32:46;;;;;;;18.73;13.18;;;13.90;99.90;;;;;;5070791;28;20067;-48
2022/05/21 07:35:15;;;;;;;16.38;13.35;;;14.10;99.90;;;;;;5071301;28;20102;-47
2022/05/21 07:37:41;;;;;;;17.33;12.73;;;14.40;99.90;;;;;;5071013;28;20024;-44
2022/05/21 07:40:08;;;;;;;16.15;11.95;;;14.60;99.90;;;;;;5071155;28;20048;-44
2022/05/21 07:42:35;;;;;;;15.90;11.75;;;14.90;99.90;;;;;;5070583;28;20024;-48
2022/05/21 07:45:01;;;;;;;12.95;10.82;;;15.20;99.90;;;;;;5070319;28;20086;-45
2022/05/21 07:47:27;;;;;;;14.45;11.00;;;15.30;99.90;;;;;;5071642;28;20111;-48
2022/05/21 07:49:56;;;;;;;16.77;10.40;;;15.40;99.90;;;;;;5070984;28;20452;-45
2022/05/21 07:52:27;;;;;;;15.50;10.35;;;15.30;99.90;;;;;;5069548;28;20024;-44
2022/05/21 07:54:53;;;;;;;14.15;9.95;;;15.10;99.90;;;;;;5071054;28;20020;-47
2022/05/21 07:57:19;;;;;;;16.42;9.73;;;14.90;99.90;;;;;;5070959;28;20022;-46
2022/05/21 07:59:45;;;;;;;11.63;9.85;;;14.90;99.90;;;;;;5070622;28;20368;-44
2022/05/21 08:02:15;;;;;;;15.60;9.25;;;14.90;99.90;;;;;;5070386;28;20042;-48
2022/05/21 08:04:41;;;;;;;11.48;8.88;;;14.80;99.90;;;;;;5070582;28;20068;-45
2022/05/21 08:07:06;;;;;;;12.23;8.50;;;14.80;99.90;;;;;;5070493;28;20493;-45
2022/05/21 08:09:32;;;;;;;10.90;8.60;;;14.70;99.90;;;;;;5070278;28;20036;-47
2022/05/21 08:11:58;;;;;;;12.65;8.20;;;14.60;99.90;;;;;;5070292;28;20206;-45
2022/05/21 08:14:23;;;;;;;9.70;7.13;;;14.50;99.90;;;;;;5070454;28;20445;-45
2022/05/21 08:16:49;;;;;;;10.30;6.78;;;14.40;99.90;;;;;;5070507;28;20029;-46
2022/05/21 08:19:16;;;;;;;8.93;6.38;;;14.20;99.90;;;;;;5069904;28;20025;-49
2022/05/21 08:21:42;;;;;;;9.10;6.65;;;14.30;99.90;;;;;;5069893;28;20510;-45
2022/05/21 08:27:02;;;;;;;8.73;5.20;;;15.10;99.90;;;;;;5070612;28;20082;-45
2022/05/21 08:29:30;;;;;;;6.30;4.28;;;15.50;99.90;;;;;;5069055;28;20606;-49
2022/05/21 08:31:56;;;;;;;4.88;4.03;;;15.80;99.90;;;;;;5069974;28;20107;-48
2022/05/21 08:34:23;;;;;;;4.72;3.13;;;16.00;99.90;;;;;;5069989;28;20456;-46
2022/05/21 08:36:49;;;;;;;7.30;3.28;;;15.90;99.90;;;;;;5070184;28;20035;-48
2022/05/21 08:39:16;;;;;;;5.47;2.60;;;15.70;99.90;;;;;;5069818;28;20483;-45
2022/05/21 08:41:58;;;;;;;3.17;2.40;;;15.70;99.90;;;;;;5068342;28;20025;-45
2022/05/21 08:44:33;;;;;;;6.35;2.70;;;15.70;99.90;;;;;;5069406;28;20035;-50
2022/05/21 08:47:15;;;;;;;5.43;3.00;;;15.80;99.90;;;;;;5069940;28;20021;-45
2022/05/21 08:50:11;;;;;;;5.22;2.38;;;15.90;99.90;;;;;;5069725;28;20021;-52
2022/05/21 08:52:49;;;;;;;5.50;2.58;;;16.10;99.90;;;;;;5069538;28;20033;-47
2022/05/21 08:55:26;;;;;;;6.30;2.00;;;16.10;99.90;;;;;;5069857;28;20078;-45
2022/05/21 08:57:57;;;;;;;3.83;2.25;;;16.00;99.90;;;;;;5069836;28;20490;-50
2022/05/21 09:00:37;;;;;;;7.05;2.25;;;15.80;99.90;;;;;;5069290;28;20024;-46
2022/05/21 09:03:09;;;;;;;5.10;2.70;;;15.60;99.90;;;;;;5069576;28;20021;-47
2022/05/21 09:05:37;;;;;;;6.45;3.00;;;15.50;99.90;;;;;;5069678;28;20110;-46
2022/05/21 09:08:08;;;;;;;5.00;2.90;;;15.40;99.90;;;;;;5069727;28;20166;-48
2022/05/21 09:11:03;;;;;;;9.70;2.40;;;15.10;99.90;;;;;;5070119;28;20036;-49
2022/05/21 09:13:34;;;;;;;6.60;2.40;;;15.00;99.90;;;;;;5069718;28;20025;-45
2022/05/21 09:18:46;;;;;;;;;;;14.50;99.90;;;;;;5070246;28;20036;-47
2022/05/21 09:21:21;;;;;;;4.07;2.27;;;14.40;99.90;;;;;;5069094;28;20282;-50
2022/05/21 09:23:56;;;;;;;5.80;2.75;;;14.30;99.90;;;;;;5069734;28;20262;-46
2022/05/21 09:26:28;;;;;;;7.25;2.80;;;14.60;99.90;;;;;;5068554;28;20420;-45
2022/05/21 09:29:27;;;;;;;6.57;2.67;;;14.90;99.90;;;;;;5069627;28;20029;-45
2022/05/21 09:31:54;;;;;;;5.90;2.42;;;15.10;99.90;;;;;;5067930;28;20120;-44
2022/05/21 09:34:27;;;;;;;6.68;3.05;;;15.10;99.90;;;;;;5069479;28;20033;-50
2022/05/21 09:36:54;;;;;;;4.03;2.08;;;15.10;99.90;;;;;;5068178;28;20089;-49
2022/05/21 09:39:39;;;;;;;7.95;2.40;;;15.20;99.90;;;;;;5069207;28;20059;-49
2022/05/21 09:45:22;;;;;;;7.40;2.40;;;14.80;99.90;;;;;;5068885;28;20055;-46
2022/05/21 09:48:11;;;;;;;5.40;2.97;;;14.80;99.90;;;;;;5069709;28;20025;-50
2022/05/21 09:50:49;;;;;;;3.17;2.10;;;14.80;99.90;;;;;;5069452;28;20040;-47
2022/05/21 09:53:22;;;;;;;5.78;2.08;;;14.80;99.90;;;;;;5068945;28;20490;-46
2022/05/21 09:56:00;;;;;;;2.53;1.60;;;14.80;99.90;;;;;;5069284;28;20104;-50
2022/05/21 09:58:25;;;;;;;6.05;1.80;;;14.90;99.90;;;;;;5069105;28;20029;-47
2022/05/21 10:00:56;;;;;;;3.75;1.73;;;14.90;99.90;;;;;;5069235;28;20135;-44
2022/05/21 10:03:51;;;;;;;3.63;2.08;;;15.00;99.90;;;;;;5067781;28;20100;-45
2022/05/21 10:06:22;;;;;;;6.38;2.03;;;15.10;99.90;;;;;;5069413;28;20029;-45
2022/05/21 10:12:03;;;;;;;4.30;1.80;;;15.20;99.90;;;;;;5069347;28;20078;-45
2022/05/21 10:14:43;;;;;;;4.35;1.98;;;15.20;99.90;;;;;;5065244;28;20446;-45
2022/05/21 10:17:22;;;;;;;4.30;2.90;;;15.40;99.90;;;;;;5071493;28;20457;-45
2022/05/21 10:20:08;;;;;;;5.70;2.50;;;15.30;99.90;;;;;;5071213;28;20013;-46
2022/05/21 10:22:36;;;;;;;6.97;2.20;;;15.20;99.90;;;;;;5072581;28;20154;-45
2022/05/21 10:25:08;;;;;;;3.13;2.70;;;15.30;99.90;;;;;;5072886;28;20479;-45
2022/05/21 10:27:56;;;;;;;7.97;3.35;;;15.40;99.90;;;;;;5072639;28;20056;-47
2022/05/21 10:30:46;;;;;;;7.57;2.83;;;15.50;99.90;;;;;;5066824;28;20495;-45
2022/05/21 10:33:24;;;;;;;7.32;2.65;;;15.50;99.90;;;;;;5072375;28;20024;-46
2022/05/21 10:36:27;;;;;;;4.43;2.38;;;15.70;99.90;;;;;;5072401;28;20029;-44
2022/05/21 10:39:17;;;;;;;3.95;2.88;;;15.80;99.90;;;;;;5072363;28;20032;-45
2022/05/21 10:42:05;;;;;;;3.90;2.08;;;16.00;99.90;;;;;;5072151;28;20017;-47
2022/05/21 10:44:59;;;;;;;8.13;2.50;;;16.10;99.90;;;;;;5071992;28;20021;-45
2022/05/21 10:48:05;;;;;;;6.57;2.75;;;16.30;99.90;;;;;;5072358;28;20083;-48
2022/05/21 10:50:45;;;;;;;5.25;2.28;;;16.20;99.90;;;;;;5072317;28;20505;-46
2022/05/21 10:53:37;;;;;;;5.35;1.83;;;16.10;99.90;;;;;;5071791;28;20027;-46
2022/05/21 10:56:44;;;;;;;9.32;2.55;;;16.00;99.90;;;;;;5072167;28;20043;-45
2022/05/21 10:59:28;;;;;;;6.45;2.15;;;16.00;99.90;;;;;;5071972;28;20515;-45
2022/05/21 11:02:16;;;;;;;6.68;2.20;;;15.90;99.90;;;;;;5071945;28;20028;-45
2022/05/21 11:05:17;;;;;;;6.35;2.22;;;15.90;99.90;;;;;;5072407;28;20506;-45
2022/05/21 11:08:32;;;;;;;5.78;1.90;;;16.10;99.90;;;;;;5049969;28;20601;-45
2022/05/21 11:11:06;;;;;;;4.22;1.77;;;16.30;99.90;;;;;;5034893;28;20424;-47
2022/05/21 11:13:42;;;;;;;3.10;1.58;;;16.40;99.90;;;;;;5071467;28;20028;-51
2022/05/21 11:16:15;;;;;;;3.97;1.80;;;16.40;99.90;;;;;;5070582;28;20090;-49
2022/05/21 11:19:12;;;;;;;6.10;2.33;;;16.40;99.90;;;;;;5071787;28;20028;-45
2022/05/21 11:21:53;;;;;;;5.00;1.83;;;16.20;99.90;;;;;;5065717;28;20469;-47
2022/05/21 11:24:45;;;;;;;5.20;1.90;;;16.10;99.90;;;;;;5071420;28;20363;-48
2022/05/21 11:27:22;;;;;;;5.05;1.92;;;16.10;99.90;;;;;;5071620;28;20024;-46
2022/05/21 11:29:51;;;;;;;4.50;1.85;;;16.10;99.90;;;;;;5071369;28;20074;-48
2022/05/21 11:38:34;;;;;;;3.90;1.80;;;16.60;99.90;;;;;;5071993;28;20031;-48
2022/05/21 11:41:29;;;;;;;7.50;2.10;;;16.50;99.90;;;;;;5071207;28;20046;-47
2022/05/21 11:47:15;;;;;;;5.78;1.45;;;16.40;99.90;;;;;;5071463;28;20031;-49
2022/05/21 11:49:51;;;;;;;5.05;1.65;;;16.10;99.90;;;;;;5049379;28;20037;-46
2022/05/21 11:52:25;;;;;;;6.28;1.52;;;16.50;99.90;;;;;;5070721;28;20477;-48
2022/05/21 11:54:51;;;;;;;4.18;1.70;;;16.70;99.90;;;;;;5070895;28;20501;-48
2022/05/21 11:57:41;;;;;;;5.03;1.70;;;16.70;99.90;;;;;;5070961;28;20024;-46
2022/05/21 12:00:29;;;;;;;5.28;1.33;;;16.70;99.90;;;;;;5070941;28;20100;-45
2022/05/21 12:02:56;;;;;;;4.82;1.25;;;16.80;99.90;;;;;;5070517;28;20021;-48
2022/05/21 12:08:33;;;;;;;2.80;1.40;;;16.70;99.90;;;;;;5061017;28;20043;-48
2022/05/21 12:11:07;;;;;;;3.80;1.50;;;16.70;99.90;;;;;;5070641;28;20028;-46
2022/05/21 12:13:35;;;;;;;3.92;1.30;;;16.50;99.90;;;;;;5070444;28;20507;-45
2022/05/21 12:16:16;;;;;;;6.68;1.73;;;16.30;99.90;;;;;;5070518;28;20103;-49
2022/05/21 12:18:47;;;;;;;2.25;1.15;;;16.10;99.90;;;;;;5069310;28;20397;-44
2022/05/21 12:21:32;;;;;;;6.25;2.42;;;15.90;99.90;;;;;;5069643;28;20063;-46
2022/05/21 12:24:33;;;;;;;4.85;1.85;;;15.80;99.90;;;;;;5070722;28;20100;-44
2022/05/21 12:27:02;;;;;;;6.95;2.15;;;15.70;99.90;;;;;;5070459;28;20095;-44
2022/05/21 12:29:32;;;;;;;5.45;1.58;;;15.80;99.90;;;;;;5070029;28;20054;-44
2022/05/21 12:32:00;;;;;;;4.75;2.05;;;16.00;99.90;;;;;;5069852;28;20020;-44
2022/05/21 12:34:28;;;;;;;4.55;1.33;;;16.30;99.90;;;;;;5070111;28;20036;-44
2022/05/21 12:37:03;;;;;;;4.88;1.48;;;16.40;99.90;;;;;;5068124;28;20052;-44
2022/05/21 12:39:54;;;;;;;8.25;1.30;;;16.60;99.90;;;;;;5069937;28;20024;-44
2022/05/21 12:42:31;;;;;;;6.15;1.52;;;16.50;99.90;;;;;;5061915;28;20590;-44
2022/05/21 12:44:57;;;;;;;5.88;1.80;;;16.40;99.90;;;;;;5069842;28;20040;-46
2022/05/21 12:47:29;;;;;;;7.05;1.85;;;16.20;99.90;;;;;;5070126;28;20098;-44
2022/05/21 12:49:55;;;;;;;6.63;1.42;;;16.10;99.90;;;;;;5069919;28;20031;-45
2022/05/21 12:52:25;;;;;;;4.55;1.48;;;16.00;99.90;;;;;;5069779;28;20060;-45
2022/05/21 12:55:16;;;;;;;5.07;1.63;;;16.10;99.90;;;;;;5070177;28;20020;-44
2022/05/21 12:57:43;;;;;;;9.45;1.77;;;16.40;99.90;;;;;;5070105;28;20029;-42
2022/05/21 13:00:09;;;;;;;1.80;1.02;;;16.40;99.90;;;;;;5068659;28;20016;-45
2022/05/21 13:02:44;;;;;;;5.60;1.70;;;16.40;99.90;;;;;;5069683;28;20487;-45
2022/05/21 13:05:17;;;;;;;7.78;1.30;;;16.40;99.90;;;;;;5068847;28;20435;-45
2022/05/21 13:07:44;;;;;;;3.80;1.27;;;16.30;99.90;;;;;;5069627;28;20467;-43
2022/05/21 13:10:28;;;;;;;4.78;1.23;;;16.10;99.90;;;;;;5069936;28;20024;-44
2022/05/21 13:13:19;;;;;;;5.53;1.83;;;16.00;99.90;;;;;;5069758;28;20029;-43
2022/05/21 13:15:50;;;;;;;5.20;1.35;;;15.90;99.90;;;;;;5070064;28;20104;-44
2022/05/21 13:18:31;;;;;;;8.55;1.95;;;16.10;99.90;;;;;;5069814;28;20036;-44
2022/05/21 13:21:09;;;;;;;6.63;1.25;;;16.30;99.90;;;;;;5069486;28;20032;-45
2022/05/21 13:24:08;;;;;;;11.15;1.73;;;16.20;99.90;;;;;;5069681;28;20084;-44
2022/05/21 13:26:36;;;;;;;2.65;1.55;;;16.10;99.90;;;;;;5069869;28;20071;-44
2022/05/21 13:29:25;;;;;;;4.03;1.90;;;16.30;99.90;;;;;;5069728;28;20102;-44
2022/05/21 13:31:52;;;;;;;6.13;1.67;;;16.50;99.90;;;;;;5069417;28;20025;-44
2022/05/21 13:34:21;;;;;;;6.80;1.92;;;16.80;99.90;;;;;;5069985;28;20475;-45
2022/05/21 13:36:58;;;;;;;6.90;1.70;;;16.80;99.90;;;;;;5070088;28;20028;-44
2022/05/21 13:39:29;;;;;;;5.28;1.98;;;16.60;99.90;;;;;;5069619;28;20382;-46